sensor_id;sensor_type;location;lat;lon;timestamp;temperature;humidity
5617;DHT22;2830;50.656;7.568;2023-07-29T00:01:22;17.50;99.90
5617;DHT22;2830;50.656;7.568;2023-07-29T00:03:49;17.50;99.90
5617;DHT22;2830;50.656;7.568;2023-07-29T00:06:15;17.40;99.90
5617;DHT22;2830;50.656;7.568;2023-07-29T00:08:42;17.40;99.90
5617;DHT22;2830;50.656;7.568;2023-07-29T00:11:09;17.40;99.90
5617;DHT22;2830;50.656;7.568;2023-07-29T00:13:35;17.40;99.90
5617;DHT22;2830;50.656;7.568;2023-07-29T00:16:02;17.50;99.90
5617;DHT22;2830;50.656;7.568;2023-07-29T00:18:29;17.60;99.90
5617;DHT22;2830;50.656;7.568;2023-07-29T00:20:56;17.60;99.90
5617;DHT22;2830;50.656;7.568;2023-07-29T00:23:22;17.60;99.90
5617;DHT22;2830;50.656;7.568;2023-07-29T00:25:49;17.60;99.90
5617;DHT22;2830;50.656;7.568;2023-07-29T00:28:16;17.60;99.90
5617;DHT22;2830;50.656;7.568;2023-07-29T00:30:44;17.70;99.90
5617;DHT22;2830;50.656;7.568;2023-07-29T00:33:10;17.80;99.90
5617;DHT22;2830;50.656;7.568;2023-07-29T00:35:37;17.80;99.90
5617;DHT22;2830;50.656;7.568;2023-07-29T00:38:04;17.80;99.90
5617;DHT22;2830;50.656;7.568;2023-07-29T00:40:35;17.90;99.90
5617;DHT22;2830;50.656;7.568;2023-07-29T00:43:02;17.90;99.90
5617;DHT22;2830;50.656;7.568;2023-07-29T00:45:30;17.90;99.90
5617;DHT22;2830;50.656;7.568;2023-07-29T00:47:58;17.90;99.90
5617;DHT22;2830;50.656;7.568;2023-07-29T00:50:26;18.00;99.90
5617;DHT22;2830;50.656;7.568;2023-07-29T00:52:57;17.90;99.90
5617;DHT22;2830;50.656;7.568;2023-07-29T00:55:24;18.00;99.90
5617;DHT22;2830;50.656;7.568;2023-07-29T00:57:51;18.00;99.90
5617;DHT22;2830;50.656;7.568;2023-07-29T01:00:21;18.10;99.90
5617;DHT22;2830;50.656;7.568;2023-07-29T01:02:48;18.10;99.90
5617;DHT22;2830;50.656;7.568;2023-07-29T01:05:16;18.10;99.90
5617;DHT22;2830;50.656;7.568;2023-07-29T01:08:03;18.10;99.90
5617;DHT22;2830;50.656;7.568;2023-07-29T01:18:30;18.10;99.90
5617;DHT22;2830;50.656;7.568;2023-07-29T01:21:03;18.10;99.90
5617;DHT22;2830;50.656;7.568;2023-07-29T01:23:31;18.00;99.90
5617;DHT22;2830;50.656;7.568;2023-07-29T01:25:58;18.10;99.90
5617;DHT22;2830;50.656;7.568;2023-07-29T01:28:26;18.10;99.90
5617;DHT22;2830;50.656;7.568;2023-07-29T01:31:10;18.10;99.90
5617;DHT22;2830;50.656;7.568;2023-07-29T01:33:44;18.10;99.90
5617;DHT22;2830;50.656;7.568;2023-07-29T01:36:21;18.10;99.90
5617;DHT22;2830;50.656;7.568;2023-07-29T01:38:50;18.10;99.90
5617;DHT22;2830;50.656;7.568;2023-07-29T01:41:18;18.10;99.90
5617;DHT22;2830;50.656;7.568;2023-07-29T01:43:46;18.10;99.90
5617;DHT22;2830;50.656;7.568;2023-07-29T01:46:14;18.10;99.90
5617;DHT22;2830;50.656;7.568;2023-07-29T01:48:41;18.10;99.90
5617;DHT22;2830;50.656;7.568;2023-07-29T01:51:11;18.10;99.90
5617;DHT22;2830;50.656;7.568;2023-07-29T01:53:38;18.10;99.90
5617;DHT22;2830;50.656;7.568;2023-07-29T01:56:04;18.00;99.90
5617;DHT22;2830;50.656;7.568;2023-07-29T01:58:31;18.00;99.90
5617;DHT22;2830;50.656;7.568;2023-07-29T02:00:58;18.00;99.90
5617;DHT22;2830;50.656;7.568;2023-07-29T02:03:24;18.00;99.90
5617;DHT22;2830;50.656;7.568;2023-07-29T02:05:51;18.00;99.90
5617;DHT22;2830;50.656;7.568;2023-07-29T02:08:18;18.00;99.90
5617;DHT22;2830;50.656;7.568;2023-07-29T02:10:45;18.10;99.90
5617;DHT22;2830;50.656;7.568;2023-07-29T02:13:12;18.10;99.90
5617;DHT22;2830;50.656;7.568;2023-07-29T02:15:39;18.10;99.90
5617;DHT22;2830;50.656;7.568;2023-07-29T02:18:05;18.00;99.90
5617;DHT22;2830;50.656;7.568;2023-07-29T02:20:33;18.10;99.90
5617;DHT22;2830;50.656;7.568;2023-07-29T02:23:03;18.10;99.90
5617;DHT22;2830;50.656;7.568;2023-07-29T02:25:29;18.10;99.90
5617;DHT22;2830;50.656;7.568;2023-07-29T02:27:56;18.10;99.90
5617;DHT22;2830;50.656;7.568;2023-07-29T02:30:23;18.10;99.90
5617;DHT22;2830;50.656;7.568;2023-07-29T02:32:49;18.00;99.90
5617;DHT22;2830;50.656;7.568;2023-07-29T02:35:16;18.00;99.90
5617;DHT22;2830;50.656;7.568;2023-07-29T02:37:43;18.00;99.90
5617;DHT22;2830;50.656;7.568;2023-07-29T02:40:10;18.00;99.90
5617;DHT22;2830;50.656;7.568;2023-07-29T02:42:37;17.90;99.90
5617;DHT22;2830;50.656;7.568;2023-07-29T02:45:05;17.90;99.90
5617;DHT22;2830;50.656;7.568;2023-07-29T02:47:37;17.90;99.90
5617;DHT22;2830;50.656;7.568;2023-07-29T02:50:04;17.90;99.90
5617;DHT22;2830;50.656;7.568;2023-07-29T02:52:31;17.80;99.90
5617;DHT22;2830;50.656;7.568;2023-07-29T02:54:58;17.80;99.90
5617;DHT22;2830;50.656;7.568;2023-07-29T02:57:24;17.70;99.90
5617;DHT22;2830;50.656;7.568;2023-07-29T02:59:51;17.70;99.90
5617;DHT22;2830;50.656;7.568;2023-07-29T03:02:18;17.70;99.90
5617;DHT22;2830;50.656;7.568;2023-07-29T03:04:44;17.70;99.90
5617;DHT22;2830;50.656;7.568;2023-07-29T03:07:11;17.70;99.90
5617;DHT22;2830;50.656;7.568;2023-07-29T03:09:38;17.70;99.90
5617;DHT22;2830;50.656;7.568;2023-07-29T03:12:05;17.70;99.90
5617;DHT22;2830;50.656;7.568;2023-07-29T03:14:32;17.60;99.90
5617;DHT22;2830;50.656;7.568;2023-07-29T03:17:02;17.60;99.90
5617;DHT22;2830;50.656;7.568;2023-07-29T03:19:30;17.60;99.90
5617;DHT22;2830;50.656;7.568;2023-07-29T03:21:57;17.60;99.90
5617;DHT22;2830;50.656;7.568;2023-07-29T03:24:24;17.60;99.90
5617;DHT22;2830;50.656;7.568;2023-07-29T03:26:50;17.60;99.90
5617;DHT22;2830;50.656;7.568;2023-07-29T03:29:17;17.60;99.90
5617;DHT22;2830;50.656;7.568;2023-07-29T03:31:44;17.70;99.90
5617;DHT22;2830;50.656;7.568;2023-07-29T03:34:10;17.70;99.90
5617;DHT22;2830;50.656;7.568;2023-07-29T03:36:39;17.60;99.90
5617;DHT22;2830;50.656;7.568;2023-07-29T03:39:05;17.60;99.90
5617;DHT22;2830;50.656;7.568;2023-07-29T03:41:32;17.60;99.90
5617;DHT22;2830;50.656;7.568;2023-07-29T03:43:59;17.70;99.90
5617;DHT22;2830;50.656;7.568;2023-07-29T03:46:25;17.70;99.90
5617;DHT22;2830;50.656;7.568;2023-07-29T03:48:52;17.70;99.90
5617;DHT22;2830;50.656;7.568;2023-07-29T03:51:19;17.70;99.90
5617;DHT22;2830;50.656;7.568;2023-07-29T03:53:46;17.70;99.90
5617;DHT22;2830;50.656;7.568;2023-07-29T03:56:12;17.70;99.90
5617;DHT22;2830;50.656;7.568;2023-07-29T03:58:39;17.80;99.90
5617;DHT22;2830;50.656;7.568;2023-07-29T04:01:06;17.80;99.90
5617;DHT22;2830;50.656;7.568;2023-07-29T04:03:33;17.80;99.90
5617;DHT22;2830;50.656;7.568;2023-07-29T04:06:01;17.80;99.90
5617;DHT22;2830;50.656;7.568;2023-07-29T04:08:27;17.80;99.90
5617;DHT22;2830;50.656;7.568;2023-07-29T04:10:54;17.80;99.90
5617;DHT22;2830;50.656;7.568;2023-07-29T04:13:21;17.80;99.90
5617;DHT22;2830;50.656;7.568;2023-07-29T04:15:48;17.90;99.90
5617;DHT22;2830;50.656;7.568;2023-07-29T04:18:15;17.90;99.90
5617;DHT22;2830;50.656;7.568;2023-07-29T04:20:42;17.90;99.90
5617;DHT22;2830;50.656;7.568;2023-07-29T04:23:08;18.00;99.90
5617;DHT22;2830;50.656;7.568;2023-07-29T04:25:35;18.00;99.90
5617;DHT22;2830;50.656;7.568;2023-07-29T04:28:02;18.00;99.90
5617;DHT22;2830;50.656;7.568;2023-07-29T04:30:30;18.00;99.90
5617;DHT22;2830;50.656;7.568;2023-07-29T04:32:56;18.00;99.90
5617;DHT22;2830;50.656;7.568;2023-07-29T04:35:23;18.00;99.90
5617;DHT22;2830;50.656;7.568;2023-07-29T04:37:50;18.10;99.90
5617;DHT22;2830;50.656;7.568;2023-07-29T04:40:17;18.10;99.90
5617;DHT22;2830;50.656;7.568;2023-07-29T04:42:44;18.00;99.90
5617;DHT22;2830;50.656;7.568;2023-07-29T04:45:10;18.10;99.90
5617;DHT22;2830;50.656;7.568;2023-07-29T04:47:37;18.10;99.90
5617;DHT22;2830;50.656;7.568;2023-07-29T04:50:04;18.10;99.90
5617;DHT22;2830;50.656;7.568;2023-07-29T04:52:31;18.10;99.90
5617;DHT22;2830;50.656;7.568;2023-07-29T04:54:58;18.10;99.90
5617;DHT22;2830;50.656;7.568;2023-07-29T04:57:25;18.10;99.90
5617;DHT22;2830;50.656;7.568;2023-07-29T04:59:52;18.10;99.90
5617;DHT22;2830;50.656;7.568;2023-07-29T05:02:18;18.20;99.90
5617;DHT22;2830;50.656;7.568;2023-07-29T05:04:45;18.10;99.90
5617;DHT22;2830;50.656;7.568;2023-07-29T05:07:12;18.10;99.90
5617;DHT22;2830;50.656;7.568;2023-07-29T05:09:38;18.10;99.90
5617;DHT22;2830;50.656;7.568;2023-07-29T05:12:06;18.10;99.90
5617;DHT22;2830;50.656;7.568;2023-07-29T05:14:33;18.10;99.90
5617;DHT22;2830;50.656;7.568;2023-07-29T05:17:00;18.20;99.90
5617;DHT22;2830;50.656;7.568;2023-07-29T05:19:27;18.30;99.90
5617;DHT22;2830;50.656;7.568;2023-07-29T05:21:54;18.30;99.90
5617;DHT22;2830;50.656;7.568;2023-07-29T05:24:21;18.30;99.90
5617;DHT22;2830;50.656;7.568;2023-07-29T05:26:48;18.40;99.90
5617;DHT22;2830;50.656;7.568;2023-07-29T05:29:15;18.40;99.90
5617;DHT22;2830;50.656;7.568;2023-07-29T05:31:41;18.40;99.90
5617;DHT22;2830;50.656;7.568;2023-07-29T05:34:08;18.50;99.90
5617;DHT22;2830;50.656;7.568;2023-07-29T05:36:35;18.40;99.90
5617;DHT22;2830;50.656;7.568;2023-07-29T05:39:02;18.40;99.90
5617;DHT22;2830;50.656;7.568;2023-07-29T05:41:29;18.40;99.90
5617;DHT22;2830;50.656;7.568;2023-07-29T05:43:56;18.40;99.90
5617;DHT22;2830;50.656;7.568;2023-07-29T05:46:22;18.30;99.90
5617;DHT22;2830;50.656;7.568;2023-07-29T05:48:49;18.20;99.90
5617;DHT22;2830;50.656;7.568;2023-07-29T05:51:16;18.20;99.90
5617;DHT22;2830;50.656;7.568;2023-07-29T05:53:42;18.20;99.90
5617;DHT22;2830;50.656;7.568;2023-07-29T05:56:09;18.20;99.90
5617;DHT22;2830;50.656;7.568;2023-07-29T05:58:37;18.20;99.90
5617;DHT22;2830;50.656;7.568;2023-07-29T06:01:03;18.10;99.90
5617;DHT22;2830;50.656;7.568;2023-07-29T06:03:30;18.20;99.90
5617;DHT22;2830;50.656;7.568;2023-07-29T06:05:57;18.20;99.90
5617;DHT22;2830;50.656;7.568;2023-07-29T06:08:23;18.30;99.90
5617;DHT22;2830;50.656;7.568;2023-07-29T06:10:50;18.30;99.90
5617;DHT22;2830;50.656;7.568;2023-07-29T06:13:17;18.40;99.90
5617;DHT22;2830;50.656;7.568;2023-07-29T06:15:43;18.40;99.90
5617;DHT22;2830;50.656;7.568;2023-07-29T06:18:10;18.50;99.90
5617;DHT22;2830;50.656;7.568;2023-07-29T06:20:37;18.50;99.90
5617;DHT22;2830;50.656;7.568;2023-07-29T06:23:04;18.60;99.90
5617;DHT22;2830;50.656;7.568;2023-07-29T06:25:30;18.70;99.90
5617;DHT22;2830;50.656;7.568;2023-07-29T06:27:57;18.70;99.90
5617;DHT22;2830;50.656;7.568;2023-07-29T06:30:25;18.70;99.90
5617;DHT22;2830;50.656;7.568;2023-07-29T06:32:51;18.70;99.90
5617;DHT22;2830;50.656;7.568;2023-07-29T06:35:18;18.80;99.90
5617;DHT22;2830;50.656;7.568;2023-07-29T06:37:45;18.80;99.90
5617;DHT22;2830;50.656;7.568;2023-07-29T06:40:12;18.90;99.90
5617;DHT22;2830;50.656;7.568;2023-07-29T06:42:39;18.90;99.90
5617;DHT22;2830;50.656;7.568;2023-07-29T06:45:06;19.00;99.90
5617;DHT22;2830;50.656;7.568;2023-07-29T06:47:33;19.10;99.90
5617;DHT22;2830;50.656;7.568;2023-07-29T06:50:00;19.10;99.90
5617;DHT22;2830;50.656;7.568;2023-07-29T06:52:27;19.30;99.90
5617;DHT22;2830;50.656;7.568;2023-07-29T06:54:53;19.40;99.90
5617;DHT22;2830;50.656;7.568;2023-07-29T06:57:20;19.40;99.90
5617;DHT22;2830;50.656;7.568;2023-07-29T06:59:47;19.50;99.90
5617;DHT22;2830;50.656;7.568;2023-07-29T07:02:14;19.60;99.90
5617;DHT22;2830;50.656;7.568;2023-07-29T07:04:41;19.60;99.90
5617;DHT22;2830;50.656;7.568;2023-07-29T07:07:07;19.60;99.90
5617;DHT22;2830;50.656;7.568;2023-07-29T07:09:34;19.70;99.90
5617;DHT22;2830;50.656;7.568;2023-07-29T07:12:01;19.70;99.90
5617;DHT22;2830;50.656;7.568;2023-07-29T07:14:27;19.80;99.90
5617;DHT22;2830;50.656;7.568;2023-07-29T07:16:54;19.90;99.90
5617;DHT22;2830;50.656;7.568;2023-07-29T07:19:21;20.00;99.90
5617;DHT22;2830;50.656;7.568;2023-07-29T07:21:47;20.10;99.90
5617;DHT22;2830;50.656;7.568;2023-07-29T07:24:14;20.40;99.90
5617;DHT22;2830;50.656;7.568;2023-07-29T07:26:41;20.80;99.90
5617;DHT22;2830;50.656;7.568;2023-07-29T07:29:07;20.90;99.90
5617;DHT22;2830;50.656;7.568;2023-07-29T07:31:34;21.30;99.90
5617;DHT22;2830;50.656;7.568;2023-07-29T07:34:01;22.10;99.90
5617;DHT22;2830;50.656;7.568;2023-07-29T07:36:29;22.90;99.90
5617;DHT22;2830;50.656;7.568;2023-07-29T07:38:56;23.70;99.90
5617;DHT22;2830;50.656;7.568;2023-07-29T07:41:23;24.80;99.90
5617;DHT22;2830;50.656;7.568;2023-07-29T07:43:50;25.40;99.90
5617;DHT22;2830;50.656;7.568;2023-07-29T07:46:17;26.00;99.90
5617;DHT22;2830;50.656;7.568;2023-07-29T07:48:44;25.70;99.90
5617;DHT22;2830;50.656;7.568;2023-07-29T07:51:12;25.20;99.90
5617;DHT22;2830;50.656;7.568;2023-07-29T07:53:39;25.10;99.90
5617;DHT22;2830;50.656;7.568;2023-07-29T07:56:06;25.10;99.90
5617;DHT22;2830;50.656;7.568;2023-07-29T07:58:34;24.90;99.90
5617;DHT22;2830;50.656;7.568;2023-07-29T08:01:03;24.90;99.90
5617;DHT22;2830;50.656;7.568;2023-07-29T08:03:33;24.10;99.90
5617;DHT22;2830;50.656;7.568;2023-07-29T08:06:00;24.10;99.90
5617;DHT22;2830;50.656;7.568;2023-07-29T08:08:27;23.90;99.90
5617;DHT22;2830;50.656;7.568;2023-07-29T08:10:56;24.30;99.90
5617;DHT22;2830;50.656;7.568;2023-07-29T08:13:24;25.70;99.90
5617;DHT22;2830;50.656;7.568;2023-07-29T08:15:52;26.60;99.90
5617;DHT22;2830;50.656;7.568;2023-07-29T08:18:20;26.20;99.90
5617;DHT22;2830;50.656;7.568;2023-07-29T08:20:58;26.00;99.90
5617;DHT22;2830;50.656;7.568;2023-07-29T08:23:25;25.20;99.90
5617;DHT22;2830;50.656;7.568;2023-07-29T08:25:54;25.30;99.90
5617;DHT22;2830;50.656;7.568;2023-07-29T08:28:23;25.10;99.90
5617;DHT22;2830;50.656;7.568;2023-07-29T08:30:51;25.30;99.90
5617;DHT22;2830;50.656;7.568;2023-07-29T08:33:18;25.60;99.90
5617;DHT22;2830;50.656;7.568;2023-07-29T08:35:44;25.60;99.90
5617;DHT22;2830;50.656;7.568;2023-07-29T08:38:11;25.60;99.90
5617;DHT22;2830;50.656;7.568;2023-07-29T08:40:46;25.70;99.90
5617;DHT22;2830;50.656;7.568;2023-07-29T08:43:17;25.90;99.90
5617;DHT22;2830;50.656;7.568;2023-07-29T08:45:45;25.70;99.90
5617;DHT22;2830;50.656;7.568;2023-07-29T08:48:15;25.30;99.90
5617;DHT22;2830;50.656;7.568;2023-07-29T08:50:46;25.20;99.90
5617;DHT22;2830;50.656;7.568;2023-07-29T08:53:13;25.50;99.90
5617;DHT22;2830;50.656;7.568;2023-07-29T08:55:41;25.90;99.90
5617;DHT22;2830;50.656;7.568;2023-07-29T08:58:08;26.30;99.90
5617;DHT22;2830;50.656;7.568;2023-07-29T09:00:35;26.50;99.90
5617;DHT22;2830;50.656;7.568;2023-07-29T09:03:02;26.40;99.90
5617;DHT22;2830;50.656;7.568;2023-07-29T09:05:33;26.30;99.90
5617;DHT22;2830;50.656;7.568;2023-07-29T09:08:02;25.80;99.90
5617;DHT22;2830;50.656;7.568;2023-07-29T09:10:30;25.40;99.90
5617;DHT22;2830;50.656;7.568;2023-07-29T09:12:56;25.10;99.90
5617;DHT22;2830;50.656;7.568;2023-07-29T09:15:30;24.50;99.90
5617;DHT22;2830;50.656;7.568;2023-07-29T09:17:58;24.00;99.90
5617;DHT22;2830;50.656;7.568;2023-07-29T09:20:28;23.50;99.90
5617;DHT22;2830;50.656;7.568;2023-07-29T09:22:59;23.10;99.90
5617;DHT22;2830;50.656;7.568;2023-07-29T09:25:29;22.70;99.90
5617;DHT22;2830;50.656;7.568;2023-07-29T09:27:59;22.60;99.90
5617;DHT22;2830;50.656;7.568;2023-07-29T09:30:27;22.40;99.90
5617;DHT22;2830;50.656;7.568;2023-07-29T09:32:58;22.40;99.90
5617;DHT22;2830;50.656;7.568;2023-07-29T09:35:33;22.40;99.90
5617;DHT22;2830;50.656;7.568;2023-07-29T09:38:00;22.20;99.90
5617;DHT22;2830;50.656;7.568;2023-07-29T09:40:27;22.20;99.90
5617;DHT22;2830;50.656;7.568;2023-07-29T09:42:55;22.00;99.90
5617;DHT22;2830;50.656;7.568;2023-07-29T09:45:23;21.70;99.90
5617;DHT22;2830;50.656;7.568;2023-07-29T09:47:51;21.30;99.90
5617;DHT22;2830;50.656;7.568;2023-07-29T09:50:18;20.90;99.90
5617;DHT22;2830;50.656;7.568;2023-07-29T09:52:46;20.70;99.90
5617;DHT22;2830;50.656;7.568;2023-07-29T09:55:26;20.40;99.90
5617;DHT22;2830;50.656;7.568;2023-07-29T09:57:56;19.90;99.90
5617;DHT22;2830;50.656;7.568;2023-07-29T10:00:23;19.70;99.90
5617;DHT22;2830;50.656;7.568;2023-07-29T10:02:50;19.60;99.90
5617;DHT22;2830;50.656;7.568;2023-07-29T10:05:18;19.70;99.90
5617;DHT22;2830;50.656;7.568;2023-07-29T10:07:46;19.90;99.90
5617;DHT22;2830;50.656;7.568;2023-07-29T10:10:13;20.30;99.90
5617;DHT22;2830;50.656;7.568;2023-07-29T10:12:41;20.70;99.90
5617;DHT22;2830;50.656;7.568;2023-07-29T10:15:10;21.10;99.90
5617;DHT22;2830;50.656;7.568;2023-07-29T10:17:38;21.50;99.90
5617;DHT22;2830;50.656;7.568;2023-07-29T10:20:07;21.70;99.90
5617;DHT22;2830;50.656;7.568;2023-07-29T10:22:47;21.80;99.90
5617;DHT22;2830;50.656;7.568;2023-07-29T10:25:18;21.80;99.90
5617;DHT22;2830;50.656;7.568;2023-07-29T10:28:05;21.90;99.90
5617;DHT22;2830;50.656;7.568;2023-07-29T10:30:32;22.20;99.90
5617;DHT22;2830;50.656;7.568;2023-07-29T10:33:02;22.50;99.90
5617;DHT22;2830;50.656;7.568;2023-07-29T10:35:32;22.40;99.90
5617;DHT22;2830;50.656;7.568;2023-07-29T10:38:04;22.20;99.90
5617;DHT22;2830;50.656;7.568;2023-07-29T10:40:50;21.90;99.90
5617;DHT22;2830;50.656;7.568;2023-07-29T10:43:27;22.10;99.90
5617;DHT22;2830;50.656;7.568;2023-07-29T10:45:55;22.40;99.90
5617;DHT22;2830;50.656;7.568;2023-07-29T10:48:40;24.10;99.90
5617;DHT22;2830;50.656;7.568;2023-07-29T10:51:30;25.30;99.90
5617;DHT22;2830;50.656;7.568;2023-07-29T10:54:13;26.20;99.90
5617;DHT22;2830;50.656;7.568;2023-07-29T10:56:42;27.90;99.90
5617;DHT22;2830;50.656;7.568;2023-07-29T11:01:41;28.70;99.90
5617;DHT22;2830;50.656;7.568;2023-07-29T11:12:51;27.10;99.90
5617;DHT22;2830;50.656;7.568;2023-07-29T11:15:20;26.60;99.90
5617;DHT22;2830;50.656;7.568;2023-07-29T11:17:52;26.20;99.90
5617;DHT22;2830;50.656;7.568;2023-07-29T11:20:26;26.10;99.90
5617;DHT22;2830;50.656;7.568;2023-07-29T11:22:54;25.80;99.90
5617;DHT22;2830;50.656;7.568;2023-07-29T11:25:23;25.70;99.90
5617;DHT22;2830;50.656;7.568;2023-07-29T11:27:54;26.00;99.90
5617;DHT22;2830;50.656;7.568;2023-07-29T11:30:21;25.60;99.90
5617;DHT22;2830;50.656;7.568;2023-07-29T11:32:49;25.10;99.90
5617;DHT22;2830;50.656;7.568;2023-07-29T11:35:17;25.00;99.90
5617;DHT22;2830;50.656;7.568;2023-07-29T11:37:46;25.30;99.90
5617;DHT22;2830;50.656;7.568;2023-07-29T11:40:20;25.10;99.90
5617;DHT22;2830;50.656;7.568;2023-07-29T11:42:48;24.70;99.90
5617;DHT22;2830;50.656;7.568;2023-07-29T11:45:20;24.20;99.90
5617;DHT22;2830;50.656;7.568;2023-07-29T11:47:47;24.00;99.90
5617;DHT22;2830;50.656;7.568;2023-07-29T11:50:14;24.20;99.90
5617;DHT22;2830;50.656;7.568;2023-07-29T11:52:43;24.10;99.90
5617;DHT22;2830;50.656;7.568;2023-07-29T11:55:11;23.90;99.90
5617;DHT22;2830;50.656;7.568;2023-07-29T11:57:40;23.40;99.90
5617;DHT22;2830;50.656;7.568;2023-07-29T12:00:09;22.70;99.90
5617;DHT22;2830;50.656;7.568;2023-07-29T12:05:05;22.00;99.90
5617;DHT22;2830;50.656;7.568;2023-07-29T12:07:33;21.60;99.90
5617;DHT22;2830;50.656;7.568;2023-07-29T12:10:03;21.40;99.90
5617;DHT22;2830;50.656;7.568;2023-07-29T12:12:30;21.10;99.90
5617;DHT22;2830;50.656;7.568;2023-07-29T12:14:57;21.10;99.90
5617;DHT22;2830;50.656;7.568;2023-07-29T12:17:24;21.40;99.90
5617;DHT22;2830;50.656;7.568;2023-07-29T12:19:54;22.60;99.90
5617;DHT22;2830;50.656;7.568;2023-07-29T12:22:21;23.90;99.90
5617;DHT22;2830;50.656;7.568;2023-07-29T12:24:51;25.10;99.90
5617;DHT22;2830;50.656;7.568;2023-07-29T12:27:18;26.00;99.90
5617;DHT22;2830;50.656;7.568;2023-07-29T12:29:51;26.50;99.90
5617;DHT22;2830;50.656;7.568;2023-07-29T12:32:18;26.80;99.90
5617;DHT22;2830;50.656;7.568;2023-07-29T12:34:45;26.80;99.90
5617;DHT22;2830;50.656;7.568;2023-07-29T12:37:12;27.20;99.90
5617;DHT22;2830;50.656;7.568;2023-07-29T12:39:42;27.20;99.90
5617;DHT22;2830;50.656;7.568;2023-07-29T12:42:09;27.10;99.90
5617;DHT22;2830;50.656;7.568;2023-07-29T12:44:38;27.10;99.90
5617;DHT22;2830;50.656;7.568;2023-07-29T12:47:06;27.20;99.90
5617;DHT22;2830;50.656;7.568;2023-07-29T12:49:33;27.40;99.90
5617;DHT22;2830;50.656;7.568;2023-07-29T12:52:00;27.30;99.90
5617;DHT22;2830;50.656;7.568;2023-07-29T12:54:27;27.30;99.90
5617;DHT22;2830;50.656;7.568;2023-07-29T12:56:53;27.70;99.70
5617;DHT22;2830;50.656;7.568;2023-07-29T12:59:20;27.90;98.60
5617;DHT22;2830;50.656;7.568;2023-07-29T13:01:47;27.40;99.90
5617;DHT22;2830;50.656;7.568;2023-07-29T13:04:14;26.90;99.20
5617;DHT22;2830;50.656;7.568;2023-07-29T13:06:41;26.70;98.90
5617;DHT22;2830;50.656;7.568;2023-07-29T13:09:08;26.80;98.10
5617;DHT22;2830;50.656;7.568;2023-07-29T13:11:34;26.80;99.90
5617;DHT22;2830;50.656;7.568;2023-07-29T13:14:01;27.00;99.70
5617;DHT22;2830;50.656;7.568;2023-07-29T13:16:28;26.70;99.60
5617;DHT22;2830;50.656;7.568;2023-07-29T13:18:56;26.50;99.90
5617;DHT22;2830;50.656;7.568;2023-07-29T13:21:23;26.50;99.90
5617;DHT22;2830;50.656;7.568;2023-07-29T13:23:51;26.60;99.90
5617;DHT22;2830;50.656;7.568;2023-07-29T13:26:18;26.60;99.90
5617;DHT22;2830;50.656;7.568;2023-07-29T13:28:44;27.00;99.90
5617;DHT22;2830;50.656;7.568;2023-07-29T13:31:11;27.10;98.60
5617;DHT22;2830;50.656;7.568;2023-07-29T13:33:39;27.00;99.90
5617;DHT22;2830;50.656;7.568;2023-07-29T13:36:06;27.20;99.90
5617;DHT22;2830;50.656;7.568;2023-07-29T13:38:34;27.10;97.70
5617;DHT22;2830;50.656;7.568;2023-07-29T13:41:01;26.70;97.40
5617;DHT22;2830;50.656;7.568;2023-07-29T13:43:28;26.60;99.30
5617;DHT22;2830;50.656;7.568;2023-07-29T13:45:55;26.70;99.50
5617;DHT22;2830;50.656;7.568;2023-07-29T13:48:22;27.10;98.00
5617;DHT22;2830;50.656;7.568;2023-07-29T13:50:49;27.20;97.60
5617;DHT22;2830;50.656;7.568;2023-07-29T13:53:16;27.20;97.30
5617;DHT22;2830;50.656;7.568;2023-07-29T13:55:42;27.30;98.40
5617;DHT22;2830;50.656;7.568;2023-07-29T13:58:09;27.20;98.40
5617;DHT22;2830;50.656;7.568;2023-07-29T14:00:36;27.10;98.70
5617;DHT22;2830;50.656;7.568;2023-07-29T14:03:02;26.90;99.00
5617;DHT22;2830;50.656;7.568;2023-07-29T14:05:29;26.50;98.60
5617;DHT22;2830;50.656;7.568;2023-07-29T14:07:56;26.20;99.50
5617;DHT22;2830;50.656;7.568;2023-07-29T14:10:23;25.50;99.90
5617;DHT22;2830;50.656;7.568;2023-07-29T14:12:50;25.00;99.90
5617;DHT22;2830;50.656;7.568;2023-07-29T14:15:17;24.50;99.90
5617;DHT22;2830;50.656;7.568;2023-07-29T14:17:44;23.90;99.90
5617;DHT22;2830;50.656;7.568;2023-07-29T14:20:11;23.10;99.90
5617;DHT22;2830;50.656;7.568;2023-07-29T14:22:38;22.50;99.90
5617;DHT22;2830;50.656;7.568;2023-07-29T14:25:06;22.20;99.90
5617;DHT22;2830;50.656;7.568;2023-07-29T14:27:33;21.90;99.90
5617;DHT22;2830;50.656;7.568;2023-07-29T14:29:59;21.60;99.90
5617;DHT22;2830;50.656;7.568;2023-07-29T14:32:26;21.20;99.90
5617;DHT22;2830;50.656;7.568;2023-07-29T14:34:54;21.00;99.90
5617;DHT22;2830;50.656;7.568;2023-07-29T14:37:21;20.60;99.90
5617;DHT22;2830;50.656;7.568;2023-07-29T14:39:48;20.50;99.90
5617;DHT22;2830;50.656;7.568;2023-07-29T14:42:17;20.40;99.90
5617;DHT22;2830;50.656;7.568;2023-07-29T14:44:54;20.60;99.90
5617;DHT22;2830;50.656;7.568;2023-07-29T14:47:27;20.90;99.90
5617;DHT22;2830;50.656;7.568;2023-07-29T14:50:31;21.30;99.90
5617;DHT22;2830;50.656;7.568;2023-07-29T14:53:00;21.80;99.90
5617;DHT22;2830;50.656;7.568;2023-07-29T14:55:27;22.00;99.90
5617;DHT22;2830;50.656;7.568;2023-07-29T14:57:54;22.20;99.90
5617;DHT22;2830;50.656;7.568;2023-07-29T15:00:21;22.00;99.90
5617;DHT22;2830;50.656;7.568;2023-07-29T15:02:48;21.80;99.90
5617;DHT22;2830;50.656;7.568;2023-07-29T15:05:15;22.00;99.90
5617;DHT22;2830;50.656;7.568;2023-07-29T15:07:43;22.20;99.90
5617;DHT22;2830;50.656;7.568;2023-07-29T15:10:13;22.40;99.90
5617;DHT22;2830;50.656;7.568;2023-07-29T15:12:44;22.30;99.90
5617;DHT22;2830;50.656;7.568;2023-07-29T15:15:11;21.90;99.90
5617;DHT22;2830;50.656;7.568;2023-07-29T15:17:45;21.70;99.90
5617;DHT22;2830;50.656;7.568;2023-07-29T15:20:15;21.40;99.90
5617;DHT22;2830;50.656;7.568;2023-07-29T15:22:42;21.40;99.90
5617;DHT22;2830;50.656;7.568;2023-07-29T15:25:10;21.40;99.90
5617;DHT22;2830;50.656;7.568;2023-07-29T15:27:37;21.50;99.90
5617;DHT22;2830;50.656;7.568;2023-07-29T15:30:05;21.70;99.90
5617;DHT22;2830;50.656;7.568;2023-07-29T15:32:32;21.80;99.90
5617;DHT22;2830;50.656;7.568;2023-07-29T15:34:59;21.80;99.90
5617;DHT22;2830;50.656;7.568;2023-07-29T15:37:35;21.80;99.90
5617;DHT22;2830;50.656;7.568;2023-07-29T15:40:46;21.90;99.90
5617;DHT22;2830;50.656;7.568;2023-07-29T15:43:19;22.00;99.90
5617;DHT22;2830;50.656;7.568;2023-07-29T15:45:45;22.10;99.90
5617;DHT22;2830;50.656;7.568;2023-07-29T15:48:12;22.10;99.90
5617;DHT22;2830;50.656;7.568;2023-07-29T15:50:39;22.10;99.90
5617;DHT22;2830;50.656;7.568;2023-07-29T15:53:06;22.00;99.90
5617;DHT22;2830;50.656;7.568;2023-07-29T15:55:33;21.90;99.90
5617;DHT22;2830;50.656;7.568;2023-07-29T15:58:00;21.90;99.90
5617;DHT22;2830;50.656;7.568;2023-07-29T16:00:31;22.00;99.90
5617;DHT22;2830;50.656;7.568;2023-07-29T16:03:00;22.10;99.90
5617;DHT22;2830;50.656;7.568;2023-07-29T16:05:27;22.20;99.90
5617;DHT22;2830;50.656;7.568;2023-07-29T16:07:54;22.20;99.90
5617;DHT22;2830;50.656;7.568;2023-07-29T16:10:24;22.20;99.90
5617;DHT22;2830;50.656;7.568;2023-07-29T16:12:50;22.20;99.90
5617;DHT22;2830;50.656;7.568;2023-07-29T16:15:17;22.10;99.90
5617;DHT22;2830;50.656;7.568;2023-07-29T16:17:44;21.90;99.90
5617;DHT22;2830;50.656;7.568;2023-07-29T16:20:23;21.80;99.90
5617;DHT22;2830;50.656;7.568;2023-07-29T16:22:50;21.70;99.90
5617;DHT22;2830;50.656;7.568;2023-07-29T16:25:17;21.60;99.90
5617;DHT22;2830;50.656;7.568;2023-07-29T16:27:43;21.50;99.90
5617;DHT22;2830;50.656;7.568;2023-07-29T16:30:11;21.40;99.90